Time;durP1;ratioP1;P1;durP2;ratioP2;P2;SDS_P1;SDS_P2;PMS_P1;PMS_P2;Temp;Humidity;BMP_temperature;BMP_pressure;BME280_temperature;BME280_humidity;BME280_pressure;Samples;Min_cycle;Max_cycle;Signal;HPM_P1;HPM_P2
2024/03/10 00:01:23;;;;;;;;;;;8.50;99.90;;;;;;5069558;28;19973;-73
2024/03/10 00:03:48;;;;;;;;;;;8.50;99.90;;;;;;5069728;28;19939;-74
2024/03/10 00:06:15;;;;;;;;;;;8.50;99.90;;;;;;5068271;28;19958;-74
2024/03/10 00:08:42;;;;;;;;;;;8.40;99.90;;;;;;5069511;28;19909;-73
2024/03/10 00:11:11;;;;;;;;;;;8.50;99.90;;;;;;5069646;28;19947;-74
2024/03/10 00:13:36;;;;;;;;;;;8.60;99.90;;;;;;5069575;28;19994;-73
2024/03/10 00:16:02;;;;;;;;;;;8.60;99.90;;;;;;5069579;28;20020;-74
2024/03/10 00:18:28;;;;;;;;;;;8.60;99.90;;;;;;5069484;28;19966;-73
2024/03/10 00:20:56;;;;;;;;;;;8.50;99.90;;;;;;5070078;28;19924;-72
2024/03/10 00:23:24;;;;;;;;;;;8.50;99.90;;;;;;5076856;28;19908;-74
2024/03/10 00:25:49;;;;;;;;;;;8.40;99.90;;;;;;5077364;28;20005;-73
2024/03/10 00:28:15;;;;;;;;;;;8.40;99.90;;;;;;5076964;28;20682;-73
2024/03/10 00:30:40;;;;;;;;;;;8.40;99.90;;;;;;5078951;28;19904;-75
2024/03/10 00:33:06;;;;;;;;;;;8.20;99.90;;;;;;5077164;28;20514;-73
2024/03/10 00:35:33;;;;;;;;;;;8.20;99.90;;;;;;5078733;28;19938;-74
2024/03/10 00:37:59;;;;;;;;;;;8.00;99.90;;;;;;5071350;28;19948;-73
2024/03/10 00:40:24;;;;;;;;;;;8.00;99.90;;;;;;5070484;28;20006;-74
2024/03/10 00:42:50;;;;;;;;;;;8.00;99.90;;;;;;5069732;28;20472;-73
2024/03/10 00:45:15;;;;;;;;;;;8.00;99.90;;;;;;5069945;28;19908;-73
2024/03/10 00:47:41;;;;;;;;;;;8.10;99.90;;;;;;5069218;28;19908;-73
2024/03/10 00:50:10;;;;;;;;;;;8.10;99.90;;;;;;5070729;28;20006;-73
2024/03/10 00:52:36;;;;;;;;;;;8.10;99.90;;;;;;5073040;28;19909;-74
2024/03/10 00:55:01;;;;;;;;;;;8.30;99.90;;;;;;5072692;28;19912;-73
2024/03/10 00:57:27;;;;;;;;;;;8.30;99.90;;;;;;5072757;28;19905;-74
2024/03/10 00:59:52;;;;;;;;;;;8.30;99.90;;;;;;5072443;28;19991;-73
2024/03/10 01:02:18;;;;;;;;;;;8.40;99.90;;;;;;5072557;28;19987;-73
2024/03/10 01:04:43;;;;;;;;;;;8.40;99.90;;;;;;5072549;28;20360;-74
2024/03/10 01:07:09;;;;;;;;;;;8.50;99.90;;;;;;5071115;28;19915;-74
2024/03/10 01:09:34;;;;;;;;;;;8.60;99.90;;;;;;5071129;28;20312;-74
2024/03/10 01:12:00;;;;;;;;;;;8.60;99.90;;;;;;5072311;28;19908;-72
2024/03/10 01:14:27;;;;;;;;;;;8.70;99.90;;;;;;5072495;28;20395;-74
2024/03/10 01:16:52;;;;;;;;;;;8.60;99.90;;;;;;5072388;28;19908;-74
2024/03/10 01:19:18;;;;;;;;;;;8.70;99.90;;;;;;5071870;28;19981;-73
2024/03/10 01:21:46;;;;;;;;;;;8.60;99.90;;;;;;5072340;28;20388;-73
2024/03/10 01:24:12;;;;;;;;;;;8.80;99.40;;;;;;5072035;28;19934;-74
2024/03/10 01:26:39;;;;;;;;;;;8.70;99.60;;;;;;5072257;28;19915;-73
2024/03/10 01:29:04;;;;;;;;;;;8.80;99.40;;;;;;5072016;28;19923;-74
2024/03/10 01:31:30;;;;;;;;;;;8.80;99.40;;;;;;5071884;28;19908;-73
2024/03/10 01:33:55;;;;;;;;;;;8.80;99.20;;;;;;5071957;28;20351;-73
2024/03/10 01:36:21;;;;;;;;;;;8.80;99.20;;;;;;5070615;28;20365;-74
2024/03/10 01:38:46;;;;;;;;;;;8.70;99.30;;;;;;5071899;28;19915;-74
2024/03/10 01:41:13;;;;;;;;;;;8.70;99.60;;;;;;5071851;28;20483;-74
2024/03/10 01:43:43;;;;;;;;;;;8.70;99.40;;;;;;5071845;28;19908;-74
2024/03/10 01:46:10;;;;;;;;;;;8.70;99.20;;;;;;5071843;28;19955;-73
2024/03/10 01:48:39;;;;;;;;;;;8.60;99.60;;;;;;5071722;28;19904;-75
2024/03/10 01:51:08;;;;;;;;;;;8.70;99.30;;;;;;5070386;28;20502;-75
2024/03/10 01:53:34;;;;;;;;;;;8.70;99.10;;;;;;5071726;28;19904;-74
2024/03/10 01:56:06;;;;;;;;;;;8.70;99.40;;;;;;5071769;28;19908;-74
2024/03/10 01:58:32;;;;;;;;;;;8.60;99.50;;;;;;5071420;28;19904;-77
2024/03/10 02:01:03;;;;;;;;;;;8.60;99.50;;;;;;5071274;28;20385;-75
2024/03/10 02:03:29;;;;;;;;;;;8.60;99.30;;;;;;5072413;28;19955;-74
2024/03/10 02:05:55;;;;;;;;;;;8.80;99.10;;;;;;5071462;28;19904;-74
2024/03/10 02:08:21;;;;;;;;;;;8.70;99.20;;;;;;5071227;28;20265;-74
2024/03/10 02:10:48;;;;;;;;;;;8.60;99.40;;;;;;5070684;28;19974;-74
2024/03/10 02:13:18;;;;;;;;;;;8.70;99.20;;;;;;5071223;28;19904;-72
2024/03/10 02:15:43;;;;;;;;;;;8.70;99.20;;;;;;5071085;28;19905;-73
2024/03/10 02:18:12;;;;;;;;;;;8.70;99.30;;;;;;5071068;28;20280;-74
2024/03/10 02:20:38;;;;;;;;;;;8.80;98.60;;;;;;5070991;28;19912;-74
2024/03/10 02:23:04;;;;;;;;;;;8.80;98.90;;;;;;5069823;28;19904;-73
2024/03/10 02:25:36;;;;;;;;;;;8.80;98.90;;;;;;5071101;28;19916;-73
2024/03/10 02:28:09;;;;;;;;;;;8.80;98.70;;;;;;5070020;28;19904;-74
2024/03/10 02:30:55;;;;;;;;;;;8.70;98.90;;;;;;5069426;28;20272;-72
2024/03/10 02:47:23;;;;;;;;;;;8.30;99.90;;;;;;5070437;28;19950;-74
2024/03/10 02:49:48;;;;;;;;;;;8.40;99.90;;;;;;5069887;28;19916;-74
2024/03/10 02:52:14;;;;;;;;;;;8.40;99.90;;;;;;5070289;28;19908;-74
2024/03/10 02:54:39;;;;;;;;;;;8.30;99.90;;;;;;5070482;28;20381;-74
2024/03/10 02:57:06;;;;;;;;;;;8.40;99.90;;;;;;5070419;28;19904;-74
2024/03/10 02:59:32;;;;;;;;;;;8.40;99.90;;;;;;5068725;28;19912;-73
2024/03/10 03:01:57;;;;;;;;;;;8.40;99.90;;;;;;5069349;28;19977;-74
2024/03/10 03:04:26;;;;;;;;;;;8.60;99.90;;;;;;5068445;28;20376;-73
2024/03/10 03:06:53;;;;;;;;;;;8.50;99.90;;;;;;5070194;28;20274;-73
2024/03/10 03:09:20;;;;;;;;;;;8.40;99.90;;;;;;5070285;28;20230;-74
2024/03/10 03:11:48;;;;;;;;;;;8.40;99.90;;;;;;5069678;28;19908;-74
2024/03/10 03:14:14;;;;;;;;;;;8.40;99.90;;;;;;5070108;28;19908;-75
2024/03/10 03:16:42;;;;;;;;;;;8.40;99.90;;;;;;5068758;28;20510;-73
2024/03/10 03:19:12;;;;;;;;;;;8.50;99.90;;;;;;5071145;28;20396;-73
2024/03/10 03:21:41;;;;;;;;;;;8.40;99.90;;;;;;5074515;28;19912;-75
2024/03/10 03:24:13;;;;;;;;;;;8.30;99.90;;;;;;5072009;28;19908;-73
2024/03/10 03:26:38;;;;;;;;;;;8.20;99.90;;;;;;5070253;28;19915;-74
2024/03/10 03:29:08;;;;;;;;;;;8.10;99.90;;;;;;5069986;28;19908;-74
2024/03/10 03:31:34;;;;;;;;;;;8.00;99.90;;;;;;5070156;28;19908;-74
2024/03/10 03:34:00;;;;;;;;;;;8.10;99.90;;;;;;5069881;28;19966;-74
2024/03/10 03:36:25;;;;;;;;;;;8.10;99.90;;;;;;5068426;28;19915;-74
2024/03/10 03:38:51;;;;;;;;;;;8.00;99.90;;;;;;5069801;28;19995;-74
2024/03/10 03:41:17;;;;;;;;;;;8.00;99.90;;;;;;5068607;28;19908;-74
2024/03/10 03:43:43;;;;;;;;;;;8.10;99.90;;;;;;5069884;28;19908;-74
2024/03/10 03:46:09;;;;;;;;;;;8.00;99.90;;;;;;5069862;28;20279;-74
2024/03/10 03:48:34;;;;;;;;;;;8.00;99.90;;;;;;5069633;28;19908;-74
2024/03/10 03:51:00;;;;;;;;;;;8.00;99.90;;;;;;5068306;28;19909;-74
2024/03/10 03:53:25;;;;;;;;;;;7.90;99.90;;;;;;5068249;28;19915;-74
2024/03/10 03:55:51;;;;;;;;;;;7.90;99.90;;;;;;5069748;28;19908;-74
2024/03/10 03:58:16;;;;;;;;;;;8.00;99.90;;;;;;5074333;28;19908;-75
2024/03/10 04:00:43;;;;;;;;;;;8.10;99.90;;;;;;5077230;28;19931;-74
2024/03/10 04:03:09;;;;;;;;;;;8.20;99.90;;;;;;5071008;28;20062;-73
2024/03/10 04:05:35;;;;;;;;;;;8.10;99.90;;;;;;5077363;28;19908;-75
2024/03/10 04:08:01;;;;;;;;;;;8.20;99.90;;;;;;5078746;28;19904;-74
2024/03/10 04:10:26;;;;;;;;;;;8.10;99.90;;;;;;5074403;28;20342;-73
2024/03/10 04:12:53;;;;;;;;;;;8.10;99.90;;;;;;5068490;28;19905;-74
2024/03/10 04:15:19;;;;;;;;;;;8.10;99.90;;;;;;5070226;28;19908;-75
2024/03/10 04:17:46;;;;;;;;;;;8.20;99.90;;;;;;5069721;28;19909;-74
2024/03/10 04:20:13;;;;;;;;;;;8.20;99.90;;;;;;5069598;28;19920;-74
2024/03/10 04:22:41;;;;;;;;;;;8.20;99.90;;;;;;5069807;28;19973;-73
2024/03/10 04:25:08;;;;;;;;;;;8.00;99.90;;;;;;5072438;28;20434;-74
2024/03/10 04:27:35;;;;;;;;;;;8.00;99.90;;;;;;5071732;28;19904;-74
2024/03/10 04:30:01;;;;;;;;;;;8.20;99.90;;;;;;5073320;28;20365;-75
2024/03/10 04:32:26;;;;;;;;;;;8.20;99.90;;;;;;5071870;28;20438;-74
2024/03/10 04:34:52;;;;;;;;;;;8.10;99.90;;;;;;5071875;28;19920;-74
2024/03/10 04:37:18;;;;;;;;;;;8.10;99.90;;;;;;5073164;28;19919;-74
2024/03/10 04:39:43;;;;;;;;;;;8.10;99.90;;;;;;5071657;28;19938;-75
2024/03/10 04:42:10;;;;;;;;;;;8.00;99.90;;;;;;5073104;28;20451;-75
2024/03/10 04:44:36;;;;;;;;;;;8.00;99.90;;;;;;5073116;28;19915;-74
2024/03/10 04:47:02;;;;;;;;;;;8.00;99.90;;;;;;5072723;28;19904;-74
2024/03/10 04:49:27;;;;;;;;;;;8.00;99.90;;;;;;5072655;28;19947;-74
2024/03/10 04:51:53;;;;;;;;;;;8.00;99.90;;;;;;5072965;28;20323;-74
2024/03/10 04:54:18;;;;;;;;;;;8.00;99.90;;;;;;5071533;28;19904;-74
2024/03/10 04:56:45;;;;;;;;;;;8.10;99.90;;;;;;5072883;28;20296;-74
2024/03/10 04:59:10;;;;;;;;;;;8.00;99.90;;;;;;5072577;28;19954;-74
2024/03/10 05:01:36;;;;;;;;;;;8.10;99.90;;;;;;5072594;28;19948;-74
2024/03/10 05:04:02;;;;;;;;;;;8.00;99.90;;;;;;5071595;28;19915;-74
2024/03/10 05:06:27;;;;;;;;;;;8.10;99.90;;;;;;5070965;28;20399;-73
2024/03/10 05:08:53;;;;;;;;;;;7.90;99.90;;;;;;5072369;28;19904;-74
2024/03/10 05:11:19;;;;;;;;;;;8.00;99.90;;;;;;5072656;28;20270;-73
2024/03/10 05:13:44;;;;;;;;;;;8.10;99.90;;;;;;5072324;28;20007;-74
2024/03/10 05:16:12;;;;;;;;;;;8.00;99.90;;;;;;5072189;28;19904;-73
2024/03/10 05:18:38;;;;;;;;;;;8.00;99.90;;;;;;5072275;28;19908;-75
2024/03/10 05:21:05;;;;;;;;;;;7.90;99.90;;;;;;5072053;28;19916;-74
2024/03/10 05:23:30;;;;;;;;;;;7.90;99.90;;;;;;5070790;28;19951;-73
2024/03/10 05:25:56;;;;;;;;;;;7.90;99.90;;;;;;5070984;28;20011;-74
2024/03/10 05:28:21;;;;;;;;;;;8.00;99.90;;;;;;5071307;28;19970;-75
2024/03/10 05:30:47;;;;;;;;;;;8.00;99.90;;;;;;5072120;28;20021;-74
2024/03/10 05:33:13;;;;;;;;;;;8.00;99.90;;;;;;5070805;28;20376;-74
2024/03/10 05:35:38;;;;;;;;;;;8.10;99.90;;;;;;5070019;28;19920;-74
2024/03/10 05:38:04;;;;;;;;;;;8.10;99.90;;;;;;5071861;28;19954;-74
2024/03/10 05:40:29;;;;;;;;;;;8.30;99.90;;;;;;5071896;28;20328;-74
2024/03/10 05:42:55;;;;;;;;;;;8.20;99.90;;;;;;5070519;28;20007;-74
2024/03/10 05:45:20;;;;;;;;;;;8.30;99.90;;;;;;5071810;28;20364;-74
2024/03/10 05:47:48;;;;;;;;;;;8.40;99.90;;;;;;5071852;28;20415;-74
2024/03/10 05:50:14;;;;;;;;;;;8.40;99.90;;;;;;5071890;28;19908;-74
2024/03/10 05:52:39;;;;;;;;;;;8.40;99.90;;;;;;5070614;28;20253;-73
2024/03/10 05:55:07;;;;;;;;;;;8.40;99.90;;;;;;5070624;28;20434;-73
2024/03/10 05:57:33;;;;;;;;;;;8.30;99.90;;;;;;5070546;28;19904;-74
2024/03/10 05:59:59;;;;;;;;;;;8.20;99.90;;;;;;5070462;28;19922;-74
2024/03/10 06:02:24;;;;;;;;;;;8.20;99.90;;;;;;5071869;28;20363;-74
2024/03/10 06:04:50;;;;;;;;;;;8.10;99.90;;;;;;5070332;28;19904;-74
2024/03/10 06:07:15;;;;;;;;;;;8.20;99.90;;;;;;5071733;28;19904;-74
2024/03/10 06:09:41;;;;;;;;;;;8.10;99.90;;;;;;5076356;28;19905;-74
2024/03/10 06:12:06;;;;;;;;;;;8.20;99.90;;;;;;5076994;28;19904;-75
2024/03/10 06:14:32;;;;;;;;;;;8.30;99.90;;;;;;5073489;28;19911;-74
2024/03/10 06:16:58;;;;;;;;;;;8.30;99.90;;;;;;5070388;28;19909;-74
2024/03/10 06:27:36;;;;;;;;;;;8.40;99.90;;;;;;5071272;28;19927;-74
2024/03/10 06:30:02;;;;;;;;;;;8.40;99.90;;;;;;5069988;28;20368;-73
2024/03/10 06:32:27;;;;;;;;;;;8.40;99.90;;;;;;5069326;28;19905;-74
2024/03/10 06:34:53;;;;;;;;;;;8.40;99.90;;;;;;5069520;28;19931;-74
2024/03/10 06:37:21;;;;;;;;;;;8.20;99.90;;;;;;5071033;28;20389;-74
2024/03/10 06:39:47;;;;;;;;;;;8.20;99.90;;;;;;5071258;28;19912;-73
2024/03/10 06:42:12;;;;;;;;;;;8.00;99.90;;;;;;5070950;28;19911;-75
2024/03/10 06:44:38;;;;;;;;;;;7.80;99.90;;;;;;5069747;28;19924;-74
2024/03/10 06:47:04;;;;;;;;;;;7.70;99.90;;;;;;5068554;28;19954;-74
2024/03/10 06:49:30;;;;;;;;;;;7.80;99.90;;;;;;5070413;28;20392;-74
2024/03/10 06:51:57;;;;;;;;;;;7.70;99.90;;;;;;5070537;28;20540;-74
2024/03/10 06:54:23;;;;;;;;;;;7.60;99.90;;;;;;5069129;28;19954;-73
2024/03/10 06:56:49;;;;;;;;;;;7.70;99.90;;;;;;5070479;28;20300;-73
2024/03/10 06:59:15;;;;;;;;;;;7.60;99.90;;;;;;5070314;28;20399;-73
2024/03/10 07:01:44;;;;;;;;;;;7.70;99.90;;;;;;5069234;28;19971;-74
2024/03/10 07:04:11;;;;;;;;;;;7.80;99.90;;;;;;5069219;28;19957;-75
2024/03/10 07:06:39;;;;;;;;;;;7.80;99.90;;;;;;5069101;28;20012;-74
2024/03/10 07:09:08;;;;;;;;;;;7.80;99.90;;;;;;5068996;28;19966;-74
2024/03/10 07:11:39;;;;;;;;;;;8.10;99.90;;;;;;5070201;28;19912;-74
2024/03/10 07:14:04;;;;;;;;;;;8.20;99.90;;;;;;5070379;28;19905;-74
2024/03/10 07:16:31;;;;;;;;;;;8.20;99.90;;;;;;5070236;28;19908;-74
2024/03/10 07:18:57;;;;;;;;;;;8.20;99.90;;;;;;5070141;28;19909;-74
2024/03/10 07:21:22;;;;;;;;;;;8.30;99.90;;;;;;5070189;28;19912;-74
2024/03/10 07:23:48;;;;;;;;;;;8.30;99.90;;;;;;5070286;28;19915;-74
2024/03/10 07:26:13;;;;;;;;;;;8.30;99.90;;;;;;5070188;28;19909;-74
2024/03/10 07:28:39;;;;;;;;;;;8.20;99.90;;;;;;5072623;28;19946;-74
2024/03/10 07:31:05;;;;;;;;;;;8.30;99.90;;;;;;5077170;28;20254;-75
2024/03/10 07:33:33;;;;;;;;;;;8.20;99.90;;;;;;5074858;28;19912;-74
2024/03/10 07:35:59;;;;;;;;;;;8.40;99.90;;;;;;5074094;28;19991;-74
2024/03/10 07:38:25;;;;;;;;;;;8.20;99.90;;;;;;5080121;28;19956;-75
2024/03/10 07:40:50;;;;;;;;;;;8.30;99.90;;;;;;5078821;28;19976;-74
2024/03/10 07:43:17;;;;;;;;;;;8.20;99.90;;;;;;5070711;28;19991;-74
2024/03/10 07:45:43;;;;;;;;;;;8.20;99.90;;;;;;5070503;28;19942;-74
2024/03/10 07:48:10;;;;;;;;;;;8.30;99.90;;;;;;5068965;28;20295;-74
2024/03/10 07:50:36;;;;;;;;;;;8.40;99.90;;;;;;5068875;28;20003;-74
2024/03/10 07:53:01;;;;;;;;;;;8.30;99.90;;;;;;5069740;28;19994;-72
2024/03/10 07:55:33;;;;;;;;;;;8.30;99.90;;;;;;5069896;28;19905;-73
2024/03/10 07:57:59;;;;;;;;;;;8.40;99.90;;;;;;5071013;28;19913;-74
2024/03/10 08:00:26;;;;;;;;;;;8.40;99.90;;;;;;5073602;28;19923;-74
2024/03/10 08:02:54;;;;;;;;;;;8.30;99.90;;;;;;5073825;28;19919;-74
2024/03/10 08:05:20;;;;;;;;;;;8.40;99.90;;;;;;5072475;28;19904;-74
2024/03/10 08:07:48;;;;;;;;;;;8.40;99.90;;;;;;5073590;28;20045;-74
2024/03/10 08:10:14;;;;;;;;;;;8.50;99.90;;;;;;5073757;28;20442;-74
2024/03/10 08:12:40;;;;;;;;;;;8.50;99.90;;;;;;5073726;28;19908;-74
2024/03/10 08:15:06;;;;;;;;;;;8.50;99.90;;;;;;5072246;28;19908;-74
2024/03/10 08:17:32;;;;;;;;;;;8.70;99.90;;;;;;5073475;28;19916;-75
2024/03/10 08:19:58;;;;;;;;;;;8.60;99.90;;;;;;5073564;28;19916;-74
2024/03/10 08:22:25;;;;;;;;;;;8.60;99.90;;;;;;5072078;28;20372;-74
2024/03/10 08:24:51;;;;;;;;;;;8.60;99.90;;;;;;5073331;28;20403;-74
2024/03/10 08:27:16;;;;;;;;;;;8.50;99.90;;;;;;5073421;28;19908;-74
2024/03/10 08:29:42;;;;;;;;;;;8.50;99.90;;;;;;5072100;28;20267;-74
2024/03/10 08:32:07;;;;;;;;;;;8.70;99.90;;;;;;5073357;28;20460;-74
2024/03/10 08:34:33;;;;;;;;;;;8.80;99.90;;;;;;5073019;28;19917;-75
2024/03/10 08:36:59;;;;;;;;;;;8.50;99.90;;;;;;5072887;28;19946;-74
2024/03/10 08:39:25;;;;;;;;;;;8.40;99.90;;;;;;5073244;28;19915;-74
2024/03/10 08:41:51;;;;;;;;;;;8.40;99.90;;;;;;5071922;28;19916;-74
2024/03/10 08:44:16;;;;;;;;;;;8.50;99.90;;;;;;5073538;28;19904;-74
2024/03/10 08:46:44;;;;;;;;;;;8.50;99.90;;;;;;5072126;28;19943;-74
2024/03/10 08:49:09;;;;;;;;;;;8.50;99.90;;;;;;5073163;28;19920;-74
2024/03/10 08:51:35;;;;;;;;;;;8.80;99.90;;;;;;5072143;28;19908;-74
2024/03/10 08:54:00;;;;;;;;;;;8.90;99.90;;;;;;5073428;28;19904;-72
2024/03/10 08:56:26;;;;;;;;;;;8.80;99.90;;;;;;5073444;28;19916;-73
2024/03/10 08:58:53;;;;;;;;;;;8.60;99.90;;;;;;5071763;28;20388;-74
2024/03/10 09:01:18;;;;;;;;;;;8.50;99.90;;;;;;5071424;28;20369;-73
2024/03/10 09:03:44;;;;;;;;;;;8.40;99.90;;;;;;5072196;28;19933;-74
2024/03/10 09:06:10;;;;;;;;;;;8.60;99.90;;;;;;5071968;28;19964;-74
2024/03/10 09:08:35;;;;;;;;;;;8.60;99.90;;;;;;5072440;28;19916;-74
2024/03/10 09:11:06;;;;;;;;;;;8.70;99.90;;;;;;5071319;28;19904;-73
2024/03/10 09:13:31;;;;;;;;;;;8.60;99.90;;;;;;5071262;28;19904;-74
2024/03/10 09:15:57;;;;;;;;;;;8.70;99.90;;;;;;5071065;28;19911;-73
2024/03/10 09:18:22;;;;;;;;;;;8.70;99.90;;;;;;5072408;28;19905;-73
2024/03/10 09:20:49;;;;;;;;;;;8.60;99.90;;;;;;5072208;28;19919;-74
2024/03/10 09:23:15;;;;;;;;;;;8.40;99.90;;;;;;5072278;28;20002;-74
2024/03/10 09:25:42;;;;;;;;;;;8.30;99.90;;;;;;5070925;28;20003;-74
2024/03/10 09:28:07;;;;;;;;;;;8.30;99.90;;;;;;5072325;28;20386;-73
2024/03/10 09:30:33;;;;;;;;;;;8.40;99.90;;;;;;5071143;28;20001;-74
2024/03/10 09:32:59;;;;;;;;;;;8.60;99.90;;;;;;5072233;28;19916;-75
2024/03/10 09:35:24;;;;;;;;;;;8.70;99.90;;;;;;5070648;28;19961;-73
2024/03/10 09:37:51;;;;;;;;;;;8.90;99.90;;;;;;5070597;28;19911;-73
2024/03/10 09:40:16;;;;;;;;;;;9.10;99.90;;;;;;5070542;28;19919;-73
2024/03/10 09:42:42;;;;;;;;;;;9.30;99.90;;;;;;5072061;28;19991;-74
2024/03/10 09:45:15;;;;;;;;;;;9.30;99.90;;;;;;5071861;28;19905;-76
2024/03/10 09:47:43;;;;;;;;;;;9.40;99.90;;;;;;5071846;28;19934;-74
2024/03/10 09:50:08;;;;;;;;;;;9.80;99.90;;;;;;5071882;28;19916;-74
2024/03/10 09:52:35;;;;;;;;;;;10.00;99.90;;;;;;5071761;28;20293;-74
2024/03/10 09:55:04;;;;;;;;;;;10.00;99.90;;;;;;5070203;28;19931;-74
2024/03/10 09:57:29;;;;;;;;;;;10.00;99.90;;;;;;5071721;28;19914;-74
2024/03/10 09:59:56;;;;;;;;;;;10.10;99.90;;;;;;5070244;28;19912;-73
2024/03/10 10:02:29;;;;;;;;;;;10.00;99.90;;;;;;5071292;28;19908;-74
2024/03/10 10:04:58;;;;;;;;;;;10.20;99.90;;;;;;5071581;28;19915;-74
2024/03/10 10:07:26;;;;;;;;;;;10.30;99.90;;;;;;5070088;28;19908;-74
2024/03/10 10:09:59;;;;;;;;;;;10.50;99.90;;;;;;5071325;28;19908;-74
2024/03/10 10:12:27;;;;;;;;;;;10.70;99.90;;;;;;5071371;28;20280;-74
2024/03/10 10:14:53;;;;;;;;;;;11.60;99.90;;;;;;5069868;28;19908;-74
2024/03/10 10:17:20;;;;;;;;;;;12.30;99.90;;;;;;5069788;28;19965;-74
2024/03/10 10:19:45;;;;;;;;;;;13.10;99.90;;;;;;5071096;28;19915;-74
2024/03/10 10:22:11;;;;;;;;;;;13.40;99.90;;;;;;5070829;28;19908;-75
2024/03/10 10:24:37;;;;;;;;;;;13.50;99.20;;;;;;5070972;28;19974;-74
2024/03/10 10:27:02;;;;;;;;;;;13.60;98.00;;;;;;5069432;28;20008;-74
2024/03/10 10:29:28;;;;;;;;;;;13.70;97.30;;;;;;5070787;28;19908;-74
2024/03/10 10:32:00;;;;;;;;;;;13.90;96.20;;;;;;5070622;28;19942;-74
2024/03/10 10:34:26;;;;;;;;;;;13.80;96.70;;;;;;5070764;28;19913;-74
2024/03/10 10:36:55;;;;;;;;;;;14.40;95.60;;;;;;5069398;28;19912;-73
2024/03/10 10:39:26;;;;;;;;;;;14.70;92.70;;;;;;5069188;28;20408;-73
2024/03/10 10:41:55;;;;;;;;;;;14.80;91.40;;;;;;5070586;28;19935;-73
2024/03/10 10:44:21;;;;;;;;;;;14.40;92.60;;;;;;5069257;28;19912;-74
2024/03/10 10:46:48;;;;;;;;;;;14.10;93.30;;;;;;5070537;28;20004;-74
2024/03/10 10:49:16;;;;;;;;;;;13.90;93.60;;;;;;5069398;28;19930;-74
2024/03/10 10:51:45;;;;;;;;;;;13.60;94.30;;;;;;5070764;28;19908;-75
2024/03/10 10:54:12;;;;;;;;;;;13.40;94.90;;;;;;5069310;28;19908;-74
2024/03/10 10:56:38;;;;;;;;;;;13.20;96.50;;;;;;5071032;28;19912;-74
2024/03/10 10:59:04;;;;;;;;;;;13.00;97.00;;;;;;5072499;28;19908;-75
2024/03/10 11:01:29;;;;;;;;;;;12.90;96.10;;;;;;5070987;28;19939;-74
2024/03/10 11:03:57;;;;;;;;;;;12.50;97.70;;;;;;5075498;28;19919;-74
2024/03/10 11:06:23;;;;;;;;;;;12.30;98.10;;;;;;5076480;28;19954;-78
2024/03/10 11:08:52;;;;;;;;;;;12.20;98.70;;;;;;5071895;28;19999;-74
2024/03/10 11:11:40;;;;;;;;;;;12.00;99.90;;;;;;5070838;28;19909;-74
2024/03/10 11:14:06;;;;;;;;;;;12.20;99.90;;;;;;5062472;28;19904;-74
2024/03/10 11:16:34;;;;;;;;;;;12.20;99.90;;;;;;5070870;28;19970;-75
2024/03/10 11:19:34;;;;;;;;;;;12.10;99.90;;;;;;5070376;28;19904;-75
2024/03/10 11:22:00;;;;;;;;;;;12.10;99.90;;;;;;5036997;28;19962;-75
2024/03/10 11:24:26;;;;;;;;;;;12.20;99.90;;;;;;5068824;28;19913;-74
2024/03/10 11:27:10;;;;;;;;;;;12.30;99.90;;;;;;5069995;28;19915;-74
2024/03/10 11:29:37;;;;;;;;;;;12.60;99.90;;;;;;5070099;28;19959;-75
2024/03/10 11:32:02;;;;;;;;;;;12.70;99.90;;;;;;5069962;28;20463;-74
2024/03/10 11:34:28;;;;;;;;;;;12.70;99.90;;;;;;5068802;28;20023;-74
2024/03/10 11:36:54;;;;;;;;;;;12.80;99.90;;;;;;5068993;28;19995;-74
2024/03/10 11:39:20;;;;;;;;;;;12.60;99.90;;;;;;5070129;28;19997;-74
2024/03/10 11:41:47;;;;;;;;;;;12.50;99.90;;;;;;5068644;28;19963;-74
2024/03/10 11:44:13;;;;;;;;;;;12.50;99.90;;;;;;5070066;28;19904;-74
2024/03/10 11:46:38;;;;;;;;;;;12.70;99.90;;;;;;5069661;28;19912;-74
2024/03/10 11:49:05;;;;;;;;;;;12.60;99.90;;;;;;5070118;28;20369;-75
2024/03/10 11:51:33;;;;;;;;;;;12.80;99.90;;;;;;5068441;28;19911;-74
2024/03/10 11:53:59;;;;;;;;;;;12.90;99.90;;;;;;5069932;28;19904;-74
2024/03/10 11:56:26;;;;;;;;;;;12.70;99.90;;;;;;5069824;28;19916;-74
2024/03/10 11:58:52;;;;;;;;;;;12.80;99.90;;;;;;5068267;28;20315;-74
2024/03/10 12:01:18;;;;;;;;;;;12.90;99.90;;;;;;5068434;28;20443;-74
2024/03/10 12:03:47;;;;;;;;;;;13.00;99.90;;;;;;5069745;28;19911;-74
2024/03/10 12:06:14;;;;;;;;;;;13.10;99.90;;;;;;5065513;28;20380;-74
2024/03/10 12:08:42;;;;;;;;;;;13.10;99.90;;;;;;5069569;28;19915;-74
2024/03/10 12:11:08;;;;;;;;;;;12.90;99.90;;;;;;5069585;28;19950;-74
2024/03/10 12:13:38;;;;;;;;;;;13.00;99.90;;;;;;5069579;28;19904;-74
2024/03/10 12:16:07;;;;;;;;;;;12.70;99.90;;;;;;5069528;28;19909;-74
2024/03/10 12:18:35;;;;;;;;;;;12.70;99.90;;;;;;5069463;28;19950;-74
2024/03/10 12:21:04;;;;;;;;;;;12.60;99.90;;;;;;5068076;28;19958;-74
2024/03/10 12:23:36;;;;;;;;;;;12.70;99.90;;;;;;5069432;28;19912;-73
2024/03/10 12:26:12;;;;;;;;;;;12.80;99.90;;;;;;5068190;28;19963;-74
2024/03/10 12:28:38;;;;;;;;;;;13.10;99.90;;;;;;5067737;28;19912;-74
2024/03/10 12:31:09;;;;;;;;;;;13.40;99.90;;;;;;5068192;28;19909;-75
2024/03/10 12:33:36;;;;;;;;;;;13.70;99.90;;;;;;5067887;28;20569;-74
2024/03/10 12:36:01;;;;;;;;;;;13.60;99.90;;;;;;5068068;28;20002;-75
2024/03/10 12:38:27;;;;;;;;;;;13.60;99.90;;;;;;5069360;28;20031;-74
2024/03/10 12:40:52;;;;;;;;;;;13.50;99.90;;;;;;5068950;28;19916;-74
2024/03/10 12:43:18;;;;;;;;;;;13.60;99.90;;;;;;5069155;28;19962;-72
2024/03/10 12:45:43;;;;;;;;;;;13.90;99.90;;;;;;5070472;28;20284;-74
2024/03/10 12:48:09;;;;;;;;;;;14.20;99.10;;;;;;5072751;28;20230;-74
2024/03/10 12:50:34;;;;;;;;;;;14.00;99.50;;;;;;5072929;28;20003;-72
2024/03/10 12:53:00;;;;;;;;;;;14.00;99.60;;;;;;5071504;28;19908;-74
2024/03/10 12:55:26;;;;;;;;;;;14.00;99.80;;;;;;5072875;28;20427;-74
2024/03/10 12:57:51;;;;;;;;;;;14.00;99.60;;;;;;5072966;28;19904;-75
2024/03/10 13:00:22;;;;;;;;;;;14.20;99.00;;;;;;5071481;28;19913;-74
2024/03/10 13:02:51;;;;;;;;;;;14.00;99.30;;;;;;5072700;28;20348;-74
2024/03/10 13:05:17;;;;;;;;;;;13.70;99.90;;;;;;5072818;28;19908;-74
2024/03/10 13:07:43;;;;;;;;;;;13.60;99.90;;;;;;5071102;28;19908;-75
2024/03/10 13:10:10;;;;;;;;;;;13.70;99.90;;;;;;5071264;28;19908;-74
2024/03/10 13:12:41;;;;;;;;;;;13.80;99.90;;;;;;5072557;28;19912;-74
2024/03/10 13:15:07;;;;;;;;;;;13.70;99.90;;;;;;5071167;28;19904;-74
2024/03/10 13:17:33;;;;;;;;;;;13.70;99.90;;;;;;5071065;28;19912;-75
2024/03/10 13:19:58;;;;;;;;;;;13.80;99.90;;;;;;5072321;28;19916;-75
2024/03/10 13:22:24;;;;;;;;;;;13.80;99.90;;;;;;5072397;28;19904;-74
2024/03/10 13:24:50;;;;;;;;;;;13.70;99.90;;;;;;5070916;28;19913;-73
2024/03/10 13:27:16;;;;;;;;;;;13.60;99.90;;;;;;5070933;28;19939;-74
2024/03/10 13:29:42;;;;;;;;;;;13.50;99.90;;;;;;5070867;28;20261;-74
2024/03/10 13:32:08;;;;;;;;;;;13.50;99.90;;;;;;5070771;28;20249;-74
2024/03/10 13:34:33;;;;;;;;;;;13.60;99.90;;;;;;5071831;28;20376;-74
2024/03/10 13:37:04;;;;;;;;;;;13.60;99.90;;;;;;5070605;28;19912;-73
2024/03/10 13:39:33;;;;;;;;;;;13.60;99.90;;;;;;5071912;28;19923;-74
2024/03/10 13:41:58;;;;;;;;;;;13.40;99.90;;;;;;5072006;28;19912;-74
2024/03/10 13:44:27;;;;;;;;;;;13.50;99.90;;;;;;5071851;28;20289;-74
2024/03/10 13:46:53;;;;;;;;;;;13.50;99.90;;;;;;5071776;28;19911;-74
2024/03/10 13:49:19;;;;;;;;;;;13.60;99.90;;;;;;5070476;28;19904;-74
2024/03/10 13:51:45;;;;;;;;;;;13.50;99.90;;;;;;5071762;28;19931;-74
2024/03/10 13:54:12;;;;;;;;;;;13.60;99.90;;;;;;5071685;28;19911;-73
2024/03/10 13:56:41;;;;;;;;;;;13.60;99.90;;;;;;5069841;28;19912;-74
2024/03/10 13:59:07;;;;;;;;;;;13.70;99.90;;;;;;5070017;28;19904;-75
2024/03/10 14:01:39;;;;;;;;;;;13.80;99.90;;;;;;5071560;28;19916;-74
2024/03/10 14:04:05;;;;;;;;;;;14.00;99.90;;;;;;5070614;28;19977;-74
2024/03/10 14:06:37;;;;;;;;;;;14.00;99.90;;;;;;5070338;28;20009;-74
2024/03/10 14:09:03;;;;;;;;;;;14.00;99.90;;;;;;5071617;28;20007;-74
2024/03/10 14:11:29;;;;;;;;;;;13.90;99.90;;;;;;5071806;28;19943;-74
2024/03/10 14:13:55;;;;;;;;;;;13.80;99.90;;;;;;5071430;28;20270;-74
2024/03/10 14:16:23;;;;;;;;;;;13.70;99.90;;;;;;5071376;28;19951;-75
2024/03/10 14:18:49;;;;;;;;;;;13.80;99.90;;;;;;5071300;28;20627;-75
2024/03/10 14:21:15;;;;;;;;;;;13.70;99.90;;;;;;5070511;28;20380;-74
2024/03/10 14:23:40;;;;;;;;;;;13.60;99.90;;;;;;5070400;28;19904;-74
2024/03/10 14:26:06;;;;;;;;;;;13.50;99.90;;;;;;5071308;28;19941;-74
2024/03/10 14:28:32;;;;;;;;;;;13.60;99.90;;;;;;5071283;28;19961;-74
2024/03/10 14:31:03;;;;;;;;;;;13.50;99.90;;;;;;5070654;28;19910;-78
2024/03/10 14:33:33;;;;;;;;;;;13.50;99.90;;;;;;5073602;28;19911;-75
2024/03/10 14:36:00;;;;;;;;;;;13.50;99.90;;;;;;5072118;28;19963;-75
2024/03/10 14:38:25;;;;;;;;;;;13.40;99.90;;;;;;5069479;28;19995;-74
2024/03/10 14:40:51;;;;;;;;;;;13.30;99.90;;;;;;5070651;28;20011;-74
2024/03/10 14:43:17;;;;;;;;;;;13.40;99.90;;;;;;5070856;28;19904;-73
2024/03/10 14:45:45;;;;;;;;;;;13.30;99.90;;;;;;5069872;28;19911;-73